WetterOnline ( https://www.wetteronline.at )

Wetter aktuell Rzeszów

Aktuelles Wetter: Rzeszow-Jasionka (201m)

6-stündlich | Neueste Meldungen
Ortszeit Temperatur Wetter
Fr, 17.09. 14:00 14.5° C leichter Regen
Fr, 17.09. 8:00 17.3° C leichter Regen
Fr, 17.09. 2:00 16.9° C bedeckt
Do, 16.09. 20:00 20.4° C leicht bewölkt
Do, 16.09. 14:00 24.3° C wolkig
Do, 16.09. 8:00 16.2° C leicht bewölkt
Do, 16.09. 2:00 13.2° C wolkenlos
Mi, 15.09. 20:00 17.4° C leicht bewölkt
Ortszeit Temperatur Wetter
Fr, 17.09. 19:00 13.6° C bedeckt, nach Regen
Fr, 17.09. 18:30 14° C leichter Regen
Fr, 17.09. 18:00 13.7° C leichter Regen
Fr, 17.09. 17:30 14° C leichter Regen
Fr, 17.09. 17:00 13.7° C leichter Regen
Fr, 17.09. 16:30 14° C leichter Regen
Fr, 17.09. 16:00 13.6° C leichter Regen
Fr, 17.09. 15:30 14° C leichter Regen
Ortszeit Relative Feuchte Sichtweite
Fr, 17.09. 14:00 97% 6 km
Fr, 17.09. 8:00 97% 5.0 km
Fr, 17.09. 2:00 98% 5.0 km
Do, 16.09. 20:00 72% 30 km
Do, 16.09. 14:00 62% 30 km
Do, 16.09. 8:00 88% 10 km
Do, 16.09. 2:00 97% 6 km
Mi, 15.09. 20:00 83% 20 km
Ortszeit Relative Feuchte Sichtweite
Fr, 17.09. 19:00 94% 10 km
Fr, 17.09. 18:30 94% 8 km
Fr, 17.09. 18:00 95% 8 km
Fr, 17.09. 17:30 94% 7 km
Fr, 17.09. 17:00 96% 6 km
Fr, 17.09. 16:30 94% 7 km
Fr, 17.09. 16:00 95% 8 km
Fr, 17.09. 15:30 100% >10 km
Ortszeit Niederschlagsmenge Niederschlagsart
Fr, 17.09. 14:00 32 l/m2 in 6 Std. Regen
Fr, 17.09. 8:00 2 l/m2 in 12 Std. Nebel
Fr, 17.09. 2:00 1 l/m2 in 6 Std. Schauer
Do, 16.09. 20:00 0.0 l/m2 in 12 Std. -
Do, 16.09. 14:00 0.0 l/m2 in 6 Std. -
Do, 16.09. 8:00 0.0 l/m2 in 12 Std. -
Do, 16.09. 2:00 0.0 l/m2 in 6 Std. -
Mi, 15.09. 20:00 0.0 l/m2 in 12 Std. -
Ortszeit Niederschlagsmenge Niederschlagsart
Fr, 17.09. 19:00 keine Meldung -
Fr, 17.09. 18:30 keine Meldung -
Fr, 17.09. 18:00 keine Meldung -
Fr, 17.09. 17:30 keine Meldung -
Fr, 17.09. 17:00 keine Meldung -
Fr, 17.09. 16:30 keine Meldung -
Fr, 17.09. 16:00 keine Meldung -
Fr, 17.09. 15:30 keine Meldung -
Ortszeit Stärke Spitze Richtung
km/h Bft. km/h Grad Sektor
Fr, 17.09. 14:00 22 4 - 320° NW
Fr, 17.09. 8:00 7 2 - 10° N
Fr, 17.09. 2:00 7 2 - 260° W
Do, 16.09. 20:00 4 1 - 120° SO
Do, 16.09. 14:00 7 2 - 200° S
Do, 16.09. 8:00 4 1 - 90° O
Do, 16.09. 2:00 11 2 - 90° O
Mi, 15.09. 20:00 11 2 - 80° O
Ortszeit Stärke Spitze Richtung
km/h Bft. km/h Grad Sektor
Fr, 17.09. 19:00 18 3 - 290° W
Fr, 17.09. 18:30 19 3 - 300° NW
Fr, 17.09. 18:00 22 4 - 300° NW
Fr, 17.09. 17:30 17 3 - 300° NW
Fr, 17.09. 17:00 18 3 - 300° NW
Fr, 17.09. 16:30 20 4 - 310° NW
Fr, 17.09. 16:00 22 4 - 300° NW
Fr, 17.09. 15:30 20 4 - 310° NW
Ortszeit Untergrenze Bedeckung Gattung
total tief tief mittel hoch
Fr, 17.09. 14:00 60 m 8/8 8/8 Sc - -
Fr, 17.09. 8:00 150 m 8/8 8/8 Sc - -
Fr, 17.09. 2:00 330 m 8/8 8/8 Sc - -
Do, 16.09. 20:00 - 7/8 7/8 - Ac -
Do, 16.09. 14:00 - 7/8 1/8 Sc Ac -
Do, 16.09. 8:00 - 7/8 2/8 - Ac Ci
Do, 16.09. 2:00 - 0/8 0/8 - - -
Mi, 15.09. 20:00 - 6/8 - - - Ci
Ortszeit Bedeckungsgrad in Achtel und Wolkenuntergrenze
Fr, 17.09. 19:00 8(330m)
Fr, 17.09. 18:30 5-7(90m) 8(300m)
Fr, 17.09. 18:00 6(90m) 8(330m)
Fr, 17.09. 17:30 5-7(90m) 8(300m)
Fr, 17.09. 17:00 6(60m) 8(330m)
Fr, 17.09. 16:30 5-7(120m) 8(300m)
Fr, 17.09. 16:00 6(90m) 8(330m)
Fr, 17.09. 15:30 5-7(90m) 8(300m)
Ortszeit Luftdruck NN (hPa) Tendenz (hPa in 3 Std.)
Fr, 17.09. 14:00 1009 - 0,2
Fr, 17.09. 8:00 1010 - 0,6
Fr, 17.09. 2:00 1011 - 1,0
Do, 16.09. 20:00 1012 - 0,3
Do, 16.09. 14:00 1013 - 0,5
Do, 16.09. 8:00 1014 - 0,3
Do, 16.09. 2:00 1015 - 0,7
Mi, 15.09. 20:00 1016 - 0,1
Ortszeit Luftdruck NN (hPa) Tendenz (hPa in 3 Std.)
Fr, 17.09. 19:00 1010 + 0,6
Fr, 17.09. 18:30 1009 keine Meldung
Fr, 17.09. 18:00 1010 + 0,8
Fr, 17.09. 17:30 1009 keine Meldung
Fr, 17.09. 17:00 1010 + 0,8
Fr, 17.09. 16:30 1009 keine Meldung
Fr, 17.09. 16:00 1010 + 0,7
Fr, 17.09. 15:30 1009 keine Meldung
Ortszeit Schneehöhe (cm)
Fr, 17.09. 14:00 -
Fr, 17.09. 8:00 -
Fr, 17.09. 2:00 -
Do, 16.09. 20:00 -
Do, 16.09. 14:00 -
Do, 16.09. 8:00 -
Do, 16.09. 2:00 -
Mi, 15.09. 20:00 -
Ortszeit Schneehöhe (cm)
Fr, 17.09. 19:00 -
Fr, 17.09. 18:30 -
Fr, 17.09. 18:00 -
Fr, 17.09. 17:30 -
Fr, 17.09. 17:00 -
Fr, 17.09. 16:30 -
Fr, 17.09. 16:00 -
Fr, 17.09. 15:30 -
Link zu dieser Seite / Seite empfehlen

Das Wetter in ...